sensor_id;sensor_type;location;lat;lon;timestamp;temperature;humidity
20973;DHT22;10645;52.370;13.314;2022-07-17T00:01:00;12.20;99.90
20973;DHT22;10645;52.370;13.314;2022-07-17T00:03:27;12.20;99.90
20973;DHT22;10645;52.370;13.314;2022-07-17T00:05:53;12.10;99.90
20973;DHT22;10645;52.370;13.314;2022-07-17T00:08:19;12.00;99.90
20973;DHT22;10645;52.370;13.314;2022-07-17T00:10:45;11.90;99.90
20973;DHT22;10645;52.370;13.314;2022-07-17T00:13:11;11.90;99.90
20973;DHT22;10645;52.370;13.314;2022-07-17T00:15:37;11.80;99.90
20973;DHT22;10645;52.370;13.314;2022-07-17T00:18:04;11.70;99.90
20973;DHT22;10645;52.370;13.314;2022-07-17T00:20:32;11.60;99.90
20973;DHT22;10645;52.370;13.314;2022-07-17T00:22:59;11.50;99.90
20973;DHT22;10645;52.370;13.314;2022-07-17T00:25:25;11.40;99.90
20973;DHT22;10645;52.370;13.314;2022-07-17T00:27:52;11.30;99.90
20973;DHT22;10645;52.370;13.314;2022-07-17T00:30:18;11.20;99.90
20973;DHT22;10645;52.370;13.314;2022-07-17T00:32:45;11.00;99.90
20973;DHT22;10645;52.370;13.314;2022-07-17T00:35:11;10.90;99.90
20973;DHT22;10645;52.370;13.314;2022-07-17T00:37:42;10.70;99.90
20973;DHT22;10645;52.370;13.314;2022-07-17T00:40:11;10.70;99.90
20973;DHT22;10645;52.370;13.314;2022-07-17T00:42:41;10.60;99.90
20973;DHT22;10645;52.370;13.314;2022-07-17T00:45:09;10.40;99.90
20973;DHT22;10645;52.370;13.314;2022-07-17T00:47:50;10.30;99.90
20973;DHT22;10645;52.370;13.314;2022-07-17T00:50:17;10.20;99.90
20973;DHT22;10645;52.370;13.314;2022-07-17T00:52:43;10.10;99.90
20973;DHT22;10645;52.370;13.314;2022-07-17T00:55:12;10.10;99.90
20973;DHT22;10645;52.370;13.314;2022-07-17T00:57:40;10.00;99.90
20973;DHT22;10645;52.370;13.314;2022-07-17T01:00:07;9.90;99.90
20973;DHT22;10645;52.370;13.314;2022-07-17T01:02:37;9.80;99.90
20973;DHT22;10645;52.370;13.314;2022-07-17T01:05:04;9.70;99.90
20973;DHT22;10645;52.370;13.314;2022-07-17T01:07:32;9.60;99.90
20973;DHT22;10645;52.370;13.314;2022-07-17T01:09:58;9.50;99.90
20973;DHT22;10645;52.370;13.314;2022-07-17T01:12:24;9.50;99.90
20973;DHT22;10645;52.370;13.314;2022-07-17T01:14:52;9.40;99.90
20973;DHT22;10645;52.370;13.314;2022-07-17T01:17:18;9.30;99.90
20973;DHT22;10645;52.370;13.314;2022-07-17T01:19:45;9.30;99.90
20973;DHT22;10645;52.370;13.314;2022-07-17T01:22:11;9.20;99.90
20973;DHT22;10645;52.370;13.314;2022-07-17T01:24:40;9.10;99.90
20973;DHT22;10645;52.370;13.314;2022-07-17T01:27:07;9.10;99.90
20973;DHT22;10645;52.370;13.314;2022-07-17T01:29:36;9.10;99.90
20973;DHT22;10645;52.370;13.314;2022-07-17T01:32:02;9.10;99.90
20973;DHT22;10645;52.370;13.314;2022-07-17T01:34:28;9.00;99.90
20973;DHT22;10645;52.370;13.314;2022-07-17T01:36:54;9.00;99.90
20973;DHT22;10645;52.370;13.314;2022-07-17T01:39:20;8.90;99.90
20973;DHT22;10645;52.370;13.314;2022-07-17T01:42:06;8.90;99.90
20973;DHT22;10645;52.370;13.314;2022-07-17T01:44:32;8.90;99.90
20973;DHT22;10645;52.370;13.314;2022-07-17T01:46:58;8.90;99.90
20973;DHT22;10645;52.370;13.314;2022-07-17T01:49:25;8.80;99.90
20973;DHT22;10645;52.370;13.314;2022-07-17T01:51:51;8.80;99.90
20973;DHT22;10645;52.370;13.314;2022-07-17T01:54:17;8.80;99.90
20973;DHT22;10645;52.370;13.314;2022-07-17T01:56:43;8.70;99.90
20973;DHT22;10645;52.370;13.314;2022-07-17T01:59:09;8.70;99.90
20973;DHT22;10645;52.370;13.314;2022-07-17T02:01:37;8.70;99.90
20973;DHT22;10645;52.370;13.314;2022-07-17T02:04:03;8.60;99.90
20973;DHT22;10645;52.370;13.314;2022-07-17T02:06:29;8.60;99.90
20973;DHT22;10645;52.370;13.314;2022-07-17T02:08:55;8.60;99.90
20973;DHT22;10645;52.370;13.314;2022-07-17T02:11:22;8.60;99.90
20973;DHT22;10645;52.370;13.314;2022-07-17T02:13:48;8.60;99.90
20973;DHT22;10645;52.370;13.314;2022-07-17T02:16:14;8.50;99.90
20973;DHT22;10645;52.370;13.314;2022-07-17T02:18:40;8.40;99.90
20973;DHT22;10645;52.370;13.314;2022-07-17T02:21:06;8.40;99.90
20973;DHT22;10645;52.370;13.314;2022-07-17T02:23:33;8.40;99.90
20973;DHT22;10645;52.370;13.314;2022-07-17T02:25:59;8.40;99.90
20973;DHT22;10645;52.370;13.314;2022-07-17T02:28:25;8.40;99.90
20973;DHT22;10645;52.370;13.314;2022-07-17T02:30:51;8.40;99.90
20973;DHT22;10645;52.370;13.314;2022-07-17T02:33:17;8.40;99.90
20973;DHT22;10645;52.370;13.314;2022-07-17T02:35:43;8.30;99.90
20973;DHT22;10645;52.370;13.314;2022-07-17T02:38:09;8.30;99.90
20973;DHT22;10645;52.370;13.314;2022-07-17T02:40:35;8.30;99.90
20973;DHT22;10645;52.370;13.314;2022-07-17T02:43:01;8.20;99.90
20973;DHT22;10645;52.370;13.314;2022-07-17T02:45:28;8.20;99.90
20973;DHT22;10645;52.370;13.314;2022-07-17T02:47:54;8.20;99.90
20973;DHT22;10645;52.370;13.314;2022-07-17T02:50:21;8.20;99.90
20973;DHT22;10645;52.370;13.314;2022-07-17T02:52:47;8.20;99.90
20973;DHT22;10645;52.370;13.314;2022-07-17T02:55:16;8.20;99.90
20973;DHT22;10645;52.370;13.314;2022-07-17T02:57:43;8.20;99.90
20973;DHT22;10645;52.370;13.314;2022-07-17T03:00:11;8.10;99.90
20973;DHT22;10645;52.370;13.314;2022-07-17T03:02:37;8.10;99.90
20973;DHT22;10645;52.370;13.314;2022-07-17T03:05:04;8.10;99.90
20973;DHT22;10645;52.370;13.314;2022-07-17T03:07:30;8.10;99.90
20973;DHT22;10645;52.370;13.314;2022-07-17T03:09:56;8.10;99.90
20973;DHT22;10645;52.370;13.314;2022-07-17T03:12:22;8.10;99.90
20973;DHT22;10645;52.370;13.314;2022-07-17T03:14:48;8.10;99.90
20973;DHT22;10645;52.370;13.314;2022-07-17T03:17:14;8.10;99.90
20973;DHT22;10645;52.370;13.314;2022-07-17T03:19:41;8.10;99.90
20973;DHT22;10645;52.370;13.314;2022-07-17T03:22:07;8.10;99.90
20973;DHT22;10645;52.370;13.314;2022-07-17T03:24:33;8.10;99.90
20973;DHT22;10645;52.370;13.314;2022-07-17T03:26:59;8.10;99.90
20973;DHT22;10645;52.370;13.314;2022-07-17T03:29:25;8.10;99.90
20973;DHT22;10645;52.370;13.314;2022-07-17T03:31:51;8.10;99.90
20973;DHT22;10645;52.370;13.314;2022-07-17T03:34:17;8.20;99.90
20973;DHT22;10645;52.370;13.314;2022-07-17T03:36:43;8.20;99.90
20973;DHT22;10645;52.370;13.314;2022-07-17T03:39:09;8.30;99.90
20973;DHT22;10645;52.370;13.314;2022-07-17T03:41:36;8.40;99.90
20973;DHT22;10645;52.370;13.314;2022-07-17T03:44:02;8.40;99.90
20973;DHT22;10645;52.370;13.314;2022-07-17T03:46:28;8.50;99.90
20973;DHT22;10645;52.370;13.314;2022-07-17T03:48:54;8.60;99.90
20973;DHT22;10645;52.370;13.314;2022-07-17T03:51:20;8.70;99.90
20973;DHT22;10645;52.370;13.314;2022-07-17T03:53:46;8.70;99.90
20973;DHT22;10645;52.370;13.314;2022-07-17T03:56:12;8.70;99.90
20973;DHT22;10645;52.370;13.314;2022-07-17T03:58:38;8.70;99.90
20973;DHT22;10645;52.370;13.314;2022-07-17T04:01:04;8.80;99.90
20973;DHT22;10645;52.370;13.314;2022-07-17T04:03:30;8.80;99.90
20973;DHT22;10645;52.370;13.314;2022-07-17T04:05:57;8.90;99.90
20973;DHT22;10645;52.370;13.314;2022-07-17T04:08:23;9.00;99.90
20973;DHT22;10645;52.370;13.314;2022-07-17T04:10:49;9.10;99.90
20973;DHT22;10645;52.370;13.314;2022-07-17T04:13:15;9.30;99.90
20973;DHT22;10645;52.370;13.314;2022-07-17T04:15:42;9.40;99.90
20973;DHT22;10645;52.370;13.314;2022-07-17T04:18:24;9.60;99.90
20973;DHT22;10645;52.370;13.314;2022-07-17T04:20:51;9.70;99.90
20973;DHT22;10645;52.370;13.314;2022-07-17T04:23:18;9.90;99.90
20973;DHT22;10645;52.370;13.314;2022-07-17T04:25:44;10.00;99.90
20973;DHT22;10645;52.370;13.314;2022-07-17T04:28:11;10.10;99.90
20973;DHT22;10645;52.370;13.314;2022-07-17T04:30:38;10.30;99.90
20973;DHT22;10645;52.370;13.314;2022-07-17T04:33:04;10.40;99.90
20973;DHT22;10645;52.370;13.314;2022-07-17T04:35:31;10.60;99.90
20973;DHT22;10645;52.370;13.314;2022-07-17T04:37:57;10.80;99.90
20973;DHT22;10645;52.370;13.314;2022-07-17T04:40:23;10.90;99.90
20973;DHT22;10645;52.370;13.314;2022-07-17T04:42:49;11.00;99.90
20973;DHT22;10645;52.370;13.314;2022-07-17T04:45:16;11.10;99.90
20973;DHT22;10645;52.370;13.314;2022-07-17T04:47:42;11.20;99.90
20973;DHT22;10645;52.370;13.314;2022-07-17T04:50:09;11.40;99.90
20973;DHT22;10645;52.370;13.314;2022-07-17T04:52:36;11.50;99.90
20973;DHT22;10645;52.370;13.314;2022-07-17T04:55:03;11.60;99.90
20973;DHT22;10645;52.370;13.314;2022-07-17T04:57:29;11.70;99.90
20973;DHT22;10645;52.370;13.314;2022-07-17T04:59:55;11.80;99.90
20973;DHT22;10645;52.370;13.314;2022-07-17T05:02:21;11.80;99.90
20973;DHT22;10645;52.370;13.314;2022-07-17T05:04:47;12.00;99.90
20973;DHT22;10645;52.370;13.314;2022-07-17T05:07:14;12.00;99.90
20973;DHT22;10645;52.370;13.314;2022-07-17T05:09:40;12.20;99.90
20973;DHT22;10645;52.370;13.314;2022-07-17T05:12:06;12.20;99.90
20973;DHT22;10645;52.370;13.314;2022-07-17T05:14:32;12.30;99.90
20973;DHT22;10645;52.370;13.314;2022-07-17T05:16:58;12.40;99.90
20973;DHT22;10645;52.370;13.314;2022-07-17T05:19:25;12.50;99.90
20973;DHT22;10645;52.370;13.314;2022-07-17T05:21:51;12.60;99.90
20973;DHT22;10645;52.370;13.314;2022-07-17T05:24:17;12.70;99.90
20973;DHT22;10645;52.370;13.314;2022-07-17T05:26:43;12.70;99.90
20973;DHT22;10645;52.370;13.314;2022-07-17T05:29:09;12.90;99.90
20973;DHT22;10645;52.370;13.314;2022-07-17T05:31:35;13.00;99.90
20973;DHT22;10645;52.370;13.314;2022-07-17T05:34:02;13.10;99.90
20973;DHT22;10645;52.370;13.314;2022-07-17T05:36:28;13.20;99.90
20973;DHT22;10645;52.370;13.314;2022-07-17T05:38:54;13.40;99.90
20973;DHT22;10645;52.370;13.314;2022-07-17T05:41:20;13.50;99.90
20973;DHT22;10645;52.370;13.314;2022-07-17T05:43:46;13.70;99.90
20973;DHT22;10645;52.370;13.314;2022-07-17T05:46:12;13.90;99.90
20973;DHT22;10645;52.370;13.314;2022-07-17T05:48:38;14.00;99.90
20973;DHT22;10645;52.370;13.314;2022-07-17T05:51:04;14.20;99.90
20973;DHT22;10645;52.370;13.314;2022-07-17T05:53:30;14.40;99.90
20973;DHT22;10645;52.370;13.314;2022-07-17T05:55:57;14.50;99.90
20973;DHT22;10645;52.370;13.314;2022-07-17T05:58:23;14.60;99.90
20973;DHT22;10645;52.370;13.314;2022-07-17T06:00:49;14.70;99.90
20973;DHT22;10645;52.370;13.314;2022-07-17T06:03:15;14.60;99.90
20973;DHT22;10645;52.370;13.314;2022-07-17T06:05:42;14.70;99.90
20973;DHT22;10645;52.370;13.314;2022-07-17T06:08:08;14.80;99.90
20973;DHT22;10645;52.370;13.314;2022-07-17T06:10:34;15.00;99.90
20973;DHT22;10645;52.370;13.314;2022-07-17T06:13:00;15.00;99.90
20973;DHT22;10645;52.370;13.314;2022-07-17T06:15:26;15.10;99.90
20973;DHT22;10645;52.370;13.314;2022-07-17T06:17:53;15.10;99.90
20973;DHT22;10645;52.370;13.314;2022-07-17T06:20:19;15.20;99.90
20973;DHT22;10645;52.370;13.314;2022-07-17T06:22:45;15.20;99.90
20973;DHT22;10645;52.370;13.314;2022-07-17T06:25:12;15.30;99.90
20973;DHT22;10645;52.370;13.314;2022-07-17T06:27:39;15.50;99.90
20973;DHT22;10645;52.370;13.314;2022-07-17T06:30:10;15.70;99.90
20973;DHT22;10645;52.370;13.314;2022-07-17T06:32:36;15.60;99.90
20973;DHT22;10645;52.370;13.314;2022-07-17T06:35:02;15.70;99.90
20973;DHT22;10645;52.370;13.314;2022-07-17T06:37:29;15.90;99.90
20973;DHT22;10645;52.370;13.314;2022-07-17T06:39:55;15.90;99.90
20973;DHT22;10645;52.370;13.314;2022-07-17T06:42:21;16.00;99.90
20973;DHT22;10645;52.370;13.314;2022-07-17T06:44:47;16.10;99.90
20973;DHT22;10645;52.370;13.314;2022-07-17T06:47:13;16.20;99.90
20973;DHT22;10645;52.370;13.314;2022-07-17T06:49:39;16.20;99.90
20973;DHT22;10645;52.370;13.314;2022-07-17T06:52:06;16.30;99.90
20973;DHT22;10645;52.370;13.314;2022-07-17T06:54:32;16.30;99.90
20973;DHT22;10645;52.370;13.314;2022-07-17T06:56:58;16.20;99.90
20973;DHT22;10645;52.370;13.314;2022-07-17T06:59:24;16.20;99.90
20973;DHT22;10645;52.370;13.314;2022-07-17T07:01:50;16.20;99.90
20973;DHT22;10645;52.370;13.314;2022-07-17T07:04:16;16.10;99.90
20973;DHT22;10645;52.370;13.314;2022-07-17T07:06:42;16.10;99.90
20973;DHT22;10645;52.370;13.314;2022-07-17T07:09:09;15.90;99.90
20973;DHT22;10645;52.370;13.314;2022-07-17T07:11:37;16.00;99.90
20973;DHT22;10645;52.370;13.314;2022-07-17T07:14:05;16.00;99.90
20973;DHT22;10645;52.370;13.314;2022-07-17T07:16:31;16.10;99.90
20973;DHT22;10645;52.370;13.314;2022-07-17T07:18:57;16.10;99.90
20973;DHT22;10645;52.370;13.314;2022-07-17T07:21:23;16.20;99.90
20973;DHT22;10645;52.370;13.314;2022-07-17T07:23:52;16.20;99.90
20973;DHT22;10645;52.370;13.314;2022-07-17T07:26:18;16.10;99.90
20973;DHT22;10645;52.370;13.314;2022-07-17T07:28:44;15.90;99.90
20973;DHT22;10645;52.370;13.314;2022-07-17T07:31:10;16.00;99.90
20973;DHT22;10645;52.370;13.314;2022-07-17T07:33:37;16.20;99.90
20973;DHT22;10645;52.370;13.314;2022-07-17T07:36:04;16.30;99.90
20973;DHT22;10645;52.370;13.314;2022-07-17T07:38:30;16.50;99.90
20973;DHT22;10645;52.370;13.314;2022-07-17T07:40:56;16.70;99.90
20973;DHT22;10645;52.370;13.314;2022-07-17T07:43:22;16.60;99.90
20973;DHT22;10645;52.370;13.314;2022-07-17T07:45:50;16.60;99.90
20973;DHT22;10645;52.370;13.314;2022-07-17T07:48:16;16.50;99.90
20973;DHT22;10645;52.370;13.314;2022-07-17T07:50:42;16.50;99.90
20973;DHT22;10645;52.370;13.314;2022-07-17T07:53:09;16.50;99.90
20973;DHT22;10645;52.370;13.314;2022-07-17T07:55:35;16.50;99.90
20973;DHT22;10645;52.370;13.314;2022-07-17T07:58:06;16.70;99.90
20973;DHT22;10645;52.370;13.314;2022-07-17T08:00:33;16.80;99.90
20973;DHT22;10645;52.370;13.314;2022-07-17T08:02:59;17.10;99.90
20973;DHT22;10645;52.370;13.314;2022-07-17T08:05:25;17.40;99.90
20973;DHT22;10645;52.370;13.314;2022-07-17T08:07:52;17.60;99.90
20973;DHT22;10645;52.370;13.314;2022-07-17T08:10:18;17.40;99.90
20973;DHT22;10645;52.370;13.314;2022-07-17T08:12:44;17.50;99.90
20973;DHT22;10645;52.370;13.314;2022-07-17T08:15:10;17.40;99.90
20973;DHT22;10645;52.370;13.314;2022-07-17T08:17:36;17.40;99.90
20973;DHT22;10645;52.370;13.314;2022-07-17T08:20:03;17.50;99.90
20973;DHT22;10645;52.370;13.314;2022-07-17T08:22:29;17.50;99.90
20973;DHT22;10645;52.370;13.314;2022-07-17T08:24:55;17.50;99.90
20973;DHT22;10645;52.370;13.314;2022-07-17T08:27:21;17.40;99.90
20973;DHT22;10645;52.370;13.314;2022-07-17T08:29:48;17.50;99.90
20973;DHT22;10645;52.370;13.314;2022-07-17T08:32:14;17.50;99.50
20973;DHT22;10645;52.370;13.314;2022-07-17T08:34:40;17.40;99.90
20973;DHT22;10645;52.370;13.314;2022-07-17T08:37:06;17.70;99.60
20973;DHT22;10645;52.370;13.314;2022-07-17T08:39:32;17.60;99.10
20973;DHT22;10645;52.370;13.314;2022-07-17T08:41:58;17.90;99.10
20973;DHT22;10645;52.370;13.314;2022-07-17T08:44:24;18.30;98.40
20973;DHT22;10645;52.370;13.314;2022-07-17T08:46:50;18.60;97.70
20973;DHT22;10645;52.370;13.314;2022-07-17T08:49:20;18.30;97.50
20973;DHT22;10645;52.370;13.314;2022-07-17T08:51:48;18.70;98.20
20973;DHT22;10645;52.370;13.314;2022-07-17T08:54:14;18.30;98.00
20973;DHT22;10645;52.370;13.314;2022-07-17T08:56:41;18.40;97.60
20973;DHT22;10645;52.370;13.314;2022-07-17T08:59:07;18.20;97.80
20973;DHT22;10645;52.370;13.314;2022-07-17T09:01:33;18.00;98.50
20973;DHT22;10645;52.370;13.314;2022-07-17T09:04:01;18.00;98.70
20973;DHT22;10645;52.370;13.314;2022-07-17T09:06:35;17.90;98.80
20973;DHT22;10645;52.370;13.314;2022-07-17T09:09:07;17.80;98.00
20973;DHT22;10645;52.370;13.314;2022-07-17T09:11:49;17.70;98.20
20973;DHT22;10645;52.370;13.314;2022-07-17T09:14:20;18.00;99.30
20973;DHT22;10645;52.370;13.314;2022-07-17T09:16:55;17.90;98.30
20973;DHT22;10645;52.370;13.314;2022-07-17T09:19:34;18.10;99.00
20973;DHT22;10645;52.370;13.314;2022-07-17T09:24:44;18.30;97.70
20973;DHT22;10645;52.370;13.314;2022-07-17T09:27:12;18.30;96.80
20973;DHT22;10645;52.370;13.314;2022-07-17T09:29:54;18.40;97.40
20973;DHT22;10645;52.370;13.314;2022-07-17T09:32:21;18.50;96.80
20973;DHT22;10645;52.370;13.314;2022-07-17T09:34:50;18.40;96.60
20973;DHT22;10645;52.370;13.314;2022-07-17T09:37:16;18.60;96.80
20973;DHT22;10645;52.370;13.314;2022-07-17T09:39:42;18.60;96.80
20973;DHT22;10645;52.370;13.314;2022-07-17T09:42:11;18.70;96.60
20973;DHT22;10645;52.370;13.314;2022-07-17T09:45:02;18.70;97.30
20973;DHT22;10645;52.370;13.314;2022-07-17T09:47:30;18.60;97.30
20973;DHT22;10645;52.370;13.314;2022-07-17T09:49:58;18.60;96.90
20973;DHT22;10645;52.370;13.314;2022-07-17T09:52:27;18.70;96.70
20973;DHT22;10645;52.370;13.314;2022-07-17T09:54:56;18.70;96.70
20973;DHT22;10645;52.370;13.314;2022-07-17T09:57:32;19.00;96.60
20973;DHT22;10645;52.370;13.314;2022-07-17T10:00:01;18.80;96.00
20973;DHT22;10645;52.370;13.314;2022-07-17T10:02:45;18.90;95.80
20973;DHT22;10645;52.370;13.314;2022-07-17T10:05:13;18.70;96.30
20973;DHT22;10645;52.370;13.314;2022-07-17T10:07:47;19.10;97.30
20973;DHT22;10645;52.370;13.314;2022-07-17T10:10:14;19.40;96.30
20973;DHT22;10645;52.370;13.314;2022-07-17T10:12:46;19.60;95.50
20973;DHT22;10645;52.370;13.314;2022-07-17T10:15:12;19.80;94.90
20973;DHT22;10645;52.370;13.314;2022-07-17T10:17:39;19.60;94.90
20973;DHT22;10645;52.370;13.314;2022-07-17T10:20:06;19.90;95.60
20973;DHT22;10645;52.370;13.314;2022-07-17T10:22:43;20.30;94.60
20973;DHT22;10645;52.370;13.314;2022-07-17T10:25:13;19.90;94.30
20973;DHT22;10645;52.370;13.314;2022-07-17T10:27:53;19.90;94.30
20973;DHT22;10645;52.370;13.314;2022-07-17T10:30:24;19.60;94.30
20973;DHT22;10645;52.370;13.314;2022-07-17T10:32:56;19.80;94.50
20973;DHT22;10645;52.370;13.314;2022-07-17T10:35:25;20.00;94.00
20973;DHT22;10645;52.370;13.314;2022-07-17T10:37:52;20.30;93.80
20973;DHT22;10645;52.370;13.314;2022-07-17T10:40:21;20.40;94.00
20973;DHT22;10645;52.370;13.314;2022-07-17T10:48:03;19.50;93.70
20973;DHT22;10645;52.370;13.314;2022-07-17T10:50:36;19.60;94.80
20973;DHT22;10645;52.370;13.314;2022-07-17T10:53:10;19.90;94.60
20973;DHT22;10645;52.370;13.314;2022-07-17T10:55:41;19.90;93.60
20973;DHT22;10645;52.370;13.314;2022-07-17T10:58:28;20.20;93.60
20973;DHT22;10645;52.370;13.314;2022-07-17T11:03:29;20.80;93.60
20973;DHT22;10645;52.370;13.314;2022-07-17T11:06:05;21.20;93.00
20973;DHT22;10645;52.370;13.314;2022-07-17T11:08:35;21.40;91.70
20973;DHT22;10645;52.370;13.314;2022-07-17T11:11:01;21.80;91.40
20973;DHT22;10645;52.370;13.314;2022-07-17T11:13:27;22.20;91.50
20973;DHT22;10645;52.370;13.314;2022-07-17T11:15:53;21.70;88.30
20973;DHT22;10645;52.370;13.314;2022-07-17T11:18:20;20.90;89.90
20973;DHT22;10645;52.370;13.314;2022-07-17T11:23:15;20.40;91.50
20973;DHT22;10645;52.370;13.314;2022-07-17T11:25:55;20.90;92.60
20973;DHT22;10645;52.370;13.314;2022-07-17T11:28:38;21.20;91.80
20973;DHT22;10645;52.370;13.314;2022-07-17T11:31:22;21.30;91.90
20973;DHT22;10645;52.370;13.314;2022-07-17T11:33:51;21.20;90.70
20973;DHT22;10645;52.370;13.314;2022-07-17T11:36:38;20.90;91.10
20973;DHT22;10645;52.370;13.314;2022-07-17T11:39:07;21.10;91.40
20973;DHT22;10645;52.370;13.314;2022-07-17T11:41:50;21.60;92.30
20973;DHT22;10645;52.370;13.314;2022-07-17T11:44:20;22.10;91.60
20973;DHT22;10645;52.370;13.314;2022-07-17T11:46:48;22.20;90.10
20973;DHT22;10645;52.370;13.314;2022-07-17T11:49:30;22.40;88.20
20973;DHT22;10645;52.370;13.314;2022-07-17T11:51:58;22.90;87.80
20973;DHT22;10645;52.370;13.314;2022-07-17T11:54:25;22.60;86.80
20973;DHT22;10645;52.370;13.314;2022-07-17T11:56:54;22.80;89.10
20973;DHT22;10645;52.370;13.314;2022-07-17T11:59:29;22.50;88.90
20973;DHT22;10645;52.370;13.314;2022-07-17T12:01:56;22.30;87.50
20973;DHT22;10645;52.370;13.314;2022-07-17T12:04:22;22.50;88.80
20973;DHT22;10645;52.370;13.314;2022-07-17T12:07:00;22.10;88.70
20973;DHT22;10645;52.370;13.314;2022-07-17T12:09:35;22.60;88.10
20973;DHT22;10645;52.370;13.314;2022-07-17T12:12:02;22.60;87.80
20973;DHT22;10645;52.370;13.314;2022-07-17T12:14:29;22.80;86.60
20973;DHT22;10645;52.370;13.314;2022-07-17T12:16:57;22.50;85.50
20973;DHT22;10645;52.370;13.314;2022-07-17T12:19:29;22.80;87.80
20973;DHT22;10645;52.370;13.314;2022-07-17T12:22:04;22.70;84.70
20973;DHT22;10645;52.370;13.314;2022-07-17T12:24:37;22.70;86.50
20973;DHT22;10645;52.370;13.314;2022-07-17T12:27:06;22.80;87.60
20973;DHT22;10645;52.370;13.314;2022-07-17T12:29:33;22.80;87.70
20973;DHT22;10645;52.370;13.314;2022-07-17T12:32:13;23.10;86.50
20973;DHT22;10645;52.370;13.314;2022-07-17T12:34:45;22.90;83.50
20973;DHT22;10645;52.370;13.314;2022-07-17T12:37:12;23.00;85.40
20973;DHT22;10645;52.370;13.314;2022-07-17T12:39:38;23.00;84.70
20973;DHT22;10645;52.370;13.314;2022-07-17T12:42:04;23.20;83.60
20973;DHT22;10645;52.370;13.314;2022-07-17T12:44:31;23.00;83.40
20973;DHT22;10645;52.370;13.314;2022-07-17T12:46:57;23.10;83.50
20973;DHT22;10645;52.370;13.314;2022-07-17T12:49:23;23.40;83.60
20973;DHT22;10645;52.370;13.314;2022-07-17T12:51:51;23.70;81.30
20973;DHT22;10645;52.370;13.314;2022-07-17T12:54:17;23.90;80.90
20973;DHT22;10645;52.370;13.314;2022-07-17T12:56:43;23.70;79.80
20973;DHT22;10645;52.370;13.314;2022-07-17T12:59:09;23.70;79.80
20973;DHT22;10645;52.370;13.314;2022-07-17T13:01:35;23.60;81.20
20973;DHT22;10645;52.370;13.314;2022-07-17T13:04:02;23.60;78.90
20973;DHT22;10645;52.370;13.314;2022-07-17T13:06:28;23.70;79.90
20973;DHT22;10645;52.370;13.314;2022-07-17T13:08:54;24.00;78.90
20973;DHT22;10645;52.370;13.314;2022-07-17T13:11:20;24.20;77.60
20973;DHT22;10645;52.370;13.314;2022-07-17T13:13:46;23.80;79.40
20973;DHT22;10645;52.370;13.314;2022-07-17T13:16:13;23.60;76.20
20973;DHT22;10645;52.370;13.314;2022-07-17T13:18:40;23.90;76.90
20973;DHT22;10645;52.370;13.314;2022-07-17T13:21:06;24.00;77.60
20973;DHT22;10645;52.370;13.314;2022-07-17T13:23:34;24.40;76.00
20973;DHT22;10645;52.370;13.314;2022-07-17T13:26:00;24.10;75.70
20973;DHT22;10645;52.370;13.314;2022-07-17T13:28:27;24.20;78.60
20973;DHT22;10645;52.370;13.314;2022-07-17T13:30:53;24.10;77.10
20973;DHT22;10645;52.370;13.314;2022-07-17T13:33:20;23.90;77.40
20973;DHT22;10645;52.370;13.314;2022-07-17T13:35:46;24.20;78.20
20973;DHT22;10645;52.370;13.314;2022-07-17T13:38:12;24.40;75.90
20973;DHT22;10645;52.370;13.314;2022-07-17T13:40:38;24.30;76.10
20973;DHT22;10645;52.370;13.314;2022-07-17T13:43:04;24.50;74.90
20973;DHT22;10645;52.370;13.314;2022-07-17T13:45:30;24.80;76.60
20973;DHT22;10645;52.370;13.314;2022-07-17T13:47:57;25.00;75.10
20973;DHT22;10645;52.370;13.314;2022-07-17T13:50:23;25.80;77.20
20973;DHT22;10645;52.370;13.314;2022-07-17T13:52:49;26.20;73.50
20973;DHT22;10645;52.370;13.314;2022-07-17T13:55:16;26.30;72.70
20973;DHT22;10645;52.370;13.314;2022-07-17T13:57:42;26.50;72.70
20973;DHT22;10645;52.370;13.314;2022-07-17T14:00:09;26.20;72.50
20973;DHT22;10645;52.370;13.314;2022-07-17T14:02:37;25.40;70.20
20973;DHT22;10645;52.370;13.314;2022-07-17T14:05:05;25.30;72.50
20973;DHT22;10645;52.370;13.314;2022-07-17T14:07:31;25.10;73.70
20973;DHT22;10645;52.370;13.314;2022-07-17T14:09:57;25.20;74.40
20973;DHT22;10645;52.370;13.314;2022-07-17T14:12:23;25.20;72.40
20973;DHT22;10645;52.370;13.314;2022-07-17T14:14:49;25.10;72.20
20973;DHT22;10645;52.370;13.314;2022-07-17T14:17:16;25.10;73.20
20973;DHT22;10645;52.370;13.314;2022-07-17T14:19:44;25.20;73.50
20973;DHT22;10645;52.370;13.314;2022-07-17T14:22:10;24.70;73.10
20973;DHT22;10645;52.370;13.314;2022-07-17T14:24:36;24.80;72.10
20973;DHT22;10645;52.370;13.314;2022-07-17T14:27:02;24.80;72.40
20973;DHT22;10645;52.370;13.314;2022-07-17T14:29:28;25.10;73.30
20973;DHT22;10645;52.370;13.314;2022-07-17T14:31:55;25.60;72.70
20973;DHT22;10645;52.370;13.314;2022-07-17T14:34:21;25.10;72.00
20973;DHT22;10645;52.370;13.314;2022-07-17T14:36:47;25.30;73.10
20973;DHT22;10645;52.370;13.314;2022-07-17T14:39:13;25.40;74.00
20973;DHT22;10645;52.370;13.314;2022-07-17T14:41:40;25.80;69.70
20973;DHT22;10645;52.370;13.314;2022-07-17T14:44:06;26.00;67.90
20973;DHT22;10645;52.370;13.314;2022-07-17T14:46:32;25.70;70.80
20973;DHT22;10645;52.370;13.314;2022-07-17T14:48:58;25.30;68.90
20973;DHT22;10645;52.370;13.314;2022-07-17T14:51:24;24.90;73.50
20973;DHT22;10645;52.370;13.314;2022-07-17T14:53:50;24.90;72.40
20973;DHT22;10645;52.370;13.314;2022-07-17T14:56:16;25.20;70.60
20973;DHT22;10645;52.370;13.314;2022-07-17T14:58:42;25.50;69.60
20973;DHT22;10645;52.370;13.314;2022-07-17T15:01:08;26.00;70.50
20973;DHT22;10645;52.370;13.314;2022-07-17T15:03:35;26.20;69.60
20973;DHT22;10645;52.370;13.314;2022-07-17T15:06:01;26.90;68.10
20973;DHT22;10645;52.370;13.314;2022-07-17T15:08:28;27.40;66.90
20973;DHT22;10645;52.370;13.314;2022-07-17T15:10:54;27.70;66.00
20973;DHT22;10645;52.370;13.314;2022-07-17T15:13:20;27.90;63.60
20973;DHT22;10645;52.370;13.314;2022-07-17T15:15:46;28.40;63.80
20973;DHT22;10645;52.370;13.314;2022-07-17T15:18:12;28.30;63.70
20973;DHT22;10645;52.370;13.314;2022-07-17T15:20:39;28.60;62.20
20973;DHT22;10645;52.370;13.314;2022-07-17T15:23:05;29.30;62.00
20973;DHT22;10645;52.370;13.314;2022-07-17T15:25:31;29.40;60.00
20973;DHT22;10645;52.370;13.314;2022-07-17T15:27:57;30.30;58.40
20973;DHT22;10645;52.370;13.314;2022-07-17T15:30:23;30.60;59.20
20973;DHT22;10645;52.370;13.314;2022-07-17T15:32:49;30.30;57.80
20973;DHT22;10645;52.370;13.314;2022-07-17T15:35:15;30.10;58.90